Terminal Aerodrome Forecast
Issued by NWS

Home | Current Version | Previous Version | Text Only | Print | Product List | Glossary On
Versions: 1 2 3 4 5 6 7 8 9 10 11 12 13 14 15 16 17 18
000
FTUS43 KPAH 181720
TAFOWB
TAF
KOWB 181720Z 1818/1918 22009KT P6SM OVC007
      TEMPO 1818/1821 -DZ SCT007 BKN015
     FM182100 22007KT P6SM OVC015
     FM190000 21005KT P6SM SCT015 BKN030
     FM190300 21003KT P6SM SCT030
     FM190600 21003KT P6SM SKC
     FM191200 22004KT P6SM SCT010
     FM191500 22006KT P6SM BKN015=

USA.gov is the U.S. government's official web portal to all federal, state and local government web resources and services.